Arlington Heights, Massachusetts
Current Conditions -  °F | °C
As of 8:02 PM on Wednesday 22 Oct 2014 (Local Time) from KBED Reporting Station
Light Rain Light Rain  
Wind Chill: 10°   Ceiling: 900
Heat Index: 10°   Visibility: 2.5mi
Dew Point:   Wind: 24mph
Humidity: 93%   Direction: 30°NNE
Pressure: 29.88"   Gusts: 35mph
Location:  42.42°N, 71.17°W
Report Text: KBED 230002Z 03021G30KT 2 1/2SM -RA BR BKN009 OVC013 10/09 A2988 RMK AO2 PK WND 03030/2358 CIG 007V011 P0001 T01000089
Loading
Personal Weather Stations






























Interactive Weather Map
Tropical Storm Tracking
New forecast layout! Learn more

10-Day Weather Forecast

Advertisements
Track Severe Weather on mobile